Time;durP1;ratioP1;P1;durP2;ratioP2;P2;SDS_P1;SDS_P2;PMS_P1;PMS_P2;Temp;Humidity;BMP_temperature;BMP_pressure;BME280_temperature;BME280_humidity;BME280_pressure;Samples;Min_cycle;Max_cycle;Signal;HPM_P1;HPM_P2
2021/01/15 00:01:18;;;;;;;68.32;33.90;;;;;;;5.19;69.51;101144.00;5032322;28;20021;-79
2021/01/15 00:03:45;;;;;;;61.55;31.20;;;;;;;4.92;69.37;101091.72;5031677;28;20075;-77
2021/01/15 00:06:24;;;;;;;65.57;32.92;;;;;;;5.11;68.88;101086.53;5031115;28;20034;-81
2021/01/15 00:08:53;;;;;;;79.23;37.03;;;;;;;5.00;69.17;101068.75;5026149;28;20048;-77
2021/01/15 00:11:25;;;;;;;63.97;34.85;;;;;;;5.11;69.46;101081.06;5027686;28;20029;-79
2021/01/15 00:13:53;;;;;;;64.70;32.33;;;;;;;5.45;69.19;101109.44;5019863;28;20026;-78
2021/01/15 00:16:27;;;;;;;71.20;32.50;;;;;;;5.01;69.51;101032.03;5012329;28;20509;-75
2021/01/15 00:18:56;;;;;;;63.42;28.42;;;;;;;4.13;69.36;100872.66;5012242;28;20060;-77
2021/01/15 00:21:25;;;;;;;75.15;31.23;;;;;;;5.36;70.33;101034.66;5012234;28;20049;-76
2021/01/15 00:23:55;;;;;;;57.53;28.65;;;;;;;5.58;71.01;101087.50;5012119;28;20120;-77
2021/01/15 00:26:24;;;;;;;61.20;28.00;;;;;;;5.56;70.63;101042.06;5012141;28;20017;-76
2021/01/15 00:28:52;;;;;;;57.65;30.83;;;;;;;5.46;69.39;101058.94;5011864;28;20018;-77
2021/01/15 00:31:19;;;;;;;55.05;28.15;;;;;;;5.58;70.40;101054.53;5011900;28;20495;-76
2021/01/15 00:33:46;;;;;;;53.95;26.48;;;;;;;5.84;70.40;101091.34;5011918;28;20064;-76
2021/01/15 00:36:13;;;;;;;65.75;31.17;;;;;;;5.03;70.00;100959.44;5011803;28;20052;-76
2021/01/15 00:38:40;;;;;;;54.45;30.65;;;;;;;5.65;70.48;101057.28;5011830;28;20049;-77
2021/01/15 00:41:09;;;;;;;61.65;29.13;;;;;;;6.00;71.61;101076.34;5011680;28;20482;-76
2021/01/15 00:43:36;;;;;;;60.50;28.05;;;;;;;6.02;71.93;101085.25;5011809;28;20054;-76
2021/01/15 00:46:09;;;;;;;57.80;28.50;;;;;;;5.69;71.73;101049.47;5011639;28;20404;-76
2021/01/15 00:51:21;;;;;;;52.40;26.48;;;;;;;6.02;73.69;101048.69;5011524;28;20461;-76
2021/01/15 00:53:48;;;;;;;60.67;27.38;;;;;;;5.86;71.56;100995.81;5011520;28;20033;-77
2021/01/15 00:56:19;;;;;;;47.17;27.88;;;;;;;6.01;70.04;101022.22;5011604;28;20037;-77
2021/01/15 00:58:47;;;;;;;58.05;27.30;;;;;;;6.21;72.53;101044.22;5011598;28;20080;-78
2021/01/15 01:01:15;;;;;;;58.30;28.75;;;;;;;5.53;71.72;100929.91;5011351;28;20069;-79
2021/01/15 01:03:46;;;;;;;53.42;27.73;;;;;;;5.99;73.50;100985.84;5011294;28;20474;-78
2021/01/15 01:06:13;;;;;;;;;;;;;;;6.37;71.86;101072.34;5011990;28;20117;-77
2021/01/15 01:08:41;;;;;;;57.15;27.23;;;;;;;5.47;72.42;100909.63;5011238;28;19909;-76
2021/01/15 01:11:22;;;;;;;57.05;26.17;;;;;;;6.43;72.64;101086.06;5011266;28;20463;-76
2021/01/15 01:13:54;;;;;;;54.70;27.73;;;;;;;6.23;72.84;101055.00;5011693;28;20066;-78
2021/01/15 01:16:22;;;;;;;56.45;26.15;;;;;;;6.43;73.75;101083.31;4993565;28;20037;-78
2021/01/15 01:18:49;;;;;;;52.10;27.02;;;;;;;6.25;72.69;101066.63;5011369;28;20069;-79
2021/01/15 01:21:18;;;;;;;53.35;28.20;;;;;;;6.01;74.41;101046.97;5010828;28;20117;-79
2021/01/15 01:23:45;;;;;;;49.97;26.23;;;;;;;5.73;73.00;100995.81;5011185;28;20116;-76
2021/01/15 01:26:13;;;;;;;59.38;27.17;;;;;;;6.63;75.68;101136.59;5011047;28;20026;-75
2021/01/15 01:28:42;;;;;;;45.97;27.17;;;;;;;6.77;73.92;101137.44;5011027;28;20506;-78
2021/01/15 01:31:13;;;;;;;66.97;28.85;;;;;;;6.76;73.99;101133.84;5010798;28;20116;-79
2021/01/15 01:33:41;;;;;;;50.78;26.40;;;;;;;6.05;74.12;101003.44;5010789;28;20117;-78
2021/01/15 01:36:08;;;;;;;51.55;26.33;;;;;;;6.10;74.91;100968.75;5010884;28;20064;-78
2021/01/15 01:38:36;;;;;;;52.22;26.60;;;;;;;6.91;74.01;101095.06;5010740;28;20029;-77
2021/01/15 01:41:03;;;;;;;47.25;25.70;;;;;;;6.41;74.66;101008.44;5010826;28;20036;-78
2021/01/15 01:43:31;;;;;;;54.28;27.17;;;;;;;6.33;75.67;100956.41;4993066;28;20034;-78
2021/01/15 01:46:02;;;;;;;46.97;23.58;;;;;;;7.23;75.66;101069.50;5010635;28;20111;-78
2021/01/15 01:48:29;;;;;;;46.42;22.88;;;;;;;7.32;75.25;101067.34;5010948;28;20394;-76
2021/01/15 01:50:56;;;;;;;46.78;23.80;;;;;;;6.57;75.72;100930.09;5010660;28;20025;-76
2021/01/15 01:53:30;;;;;;;44.80;21.65;;;;;;;6.79;76.17;100989.44;5010751;28;20072;-78
2021/01/15 01:56:00;;;;;;;45.92;22.02;;;;;;;5.99;76.78;100874.00;5010705;28;20446;-77
2021/01/15 01:58:28;;;;;;;36.15;20.75;;;;;;;7.39;77.23;101095.69;5010637;28;20026;-77
2021/01/15 02:00:59;;;;;;;54.10;22.80;;;;;;;7.53;77.07;101064.25;5014531;28;20425;-76
2021/01/15 02:03:26;;;;;;;47.08;21.05;;;;;;;7.08;77.86;100989.94;5014622;28;20036;-78
2021/01/15 02:05:53;;;;;;;44.15;20.45;;;;;;;7.58;77.01;101054.44;4997000;28;20545;-78
2021/01/15 02:08:20;;;;;;;40.95;21.52;;;;;;;6.81;76.97;100935.03;5014691;28;20026;-76
2021/01/15 02:11:30;;;;;;;36.35;17.98;;;;;;;7.58;77.75;101070.97;5014402;28;20037;-77
2021/01/15 02:14:30;;;;;;;51.75;18.55;;;;;;;7.53;77.78;101069.75;5013528;28;20390;-78
2021/01/15 02:16:58;;;;;;;36.00;18.95;;;;;;;7.29;77.54;101023.69;5014338;28;20044;-78
2021/01/15 02:19:37;;;;;;;40.83;18.90;;;;;;;7.57;77.42;101050.88;5014384;28;20426;-78
2021/01/15 02:22:22;;;;;;;43.95;18.20;;;;;;;7.55;78.04;101038.38;5014245;28;20025;-78
2021/01/15 02:24:51;;;;;;;46.72;19.52;;;;;;;7.57;77.59;101047.25;5014283;28;20449;-77
2021/01/15 02:27:49;;;;;;;40.25;19.30;;;;;;;7.49;78.45;101046.44;5014432;28;20455;-77
2021/01/15 02:30:40;;;;;;;35.05;17.40;;;;;;;7.50;79.12;101042.63;5014068;28;20548;-78
2021/01/15 02:33:19;;;;;;;46.17;17.75;;;;;;;7.19;80.02;100986.47;5014047;28;20053;-78
2021/01/15 02:35:54;;;;;;;45.65;17.75;;;;;;;7.13;80.53;100976.34;5014137;28;20034;-78
2021/01/15 02:38:25;;;;;;;34.88;16.30;;;;;;;7.42;80.65;100998.81;5014024;28;20033;-78
2021/01/15 02:41:26;;;;;;;30.13;15.77;;;;;;;7.49;81.25;100990.53;5014018;28;20036;-75
2021/01/15 02:44:03;;;;;;;39.38;15.65;;;;;;;7.49;81.98;100985.00;5014276;28;20107;-78
2021/01/15 02:46:52;;;;;;;32.10;12.45;;;;;;;7.70;81.74;100975.50;5013817;28;20033;-77
2021/01/15 02:49:19;;;;;;;27.52;12.52;;;;;;;6.79;81.31;100788.56;5013743;28;20077;-77
2021/01/15 02:51:46;;;;;;;35.17;11.55;;;;;;;7.72;81.91;100953.25;5013799;28;20026;-78
2021/01/15 02:54:13;;;;;;;24.17;12.90;;;;;;;7.15;81.47;100841.19;5013885;28;20482;-79
2021/01/15 02:56:40;;;;;;;30.02;13.02;;;;;;;7.62;81.75;100918.75;5013631;28;20034;-77
2021/01/15 02:59:08;;;;;;;30.60;12.18;;;;;;;7.53;82.58;100914.59;5013389;28;20048;-78
2021/01/15 03:01:58;;;;;;;30.70;11.35;;;;;;;7.78;82.59;100919.22;5013466;28;20108;-77
2021/01/15 03:04:32;;;;;;;34.08;12.32;;;;;;;7.86;83.09;100916.22;5004476;28;20048;-77
2021/01/15 03:07:02;;;;;;;33.03;10.27;;;;;;;8.03;83.08;100915.59;5013541;28;21556;-77
2021/01/15 03:09:36;;;;;;;33.20;11.13;;;;;;;8.19;82.34;100901.19;5013373;28;20084;-76
2021/01/15 03:12:06;;;;;;;31.60;12.23;;;;;;;7.59;82.49;100772.31;5013404;28;20061;-78
2021/01/15 03:14:36;;;;;;;37.38;12.90;;;;;;;7.44;81.77;100768.06;5013762;28;20025;-78
2021/01/15 03:17:07;;;;;;;30.15;11.93;;;;;;;7.10;81.81;100718.84;5013313;28;20072;-77
2021/01/15 03:19:35;;;;;;;21.15;12.23;;;;;;;8.15;82.61;100888.94;5013349;28;20076;-78
2021/01/15 03:22:15;;;;;;;36.55;16.13;;;;;;;8.45;83.12;100925.94;5013200;28;20026;-78
2021/01/15 03:24:55;;;;;;;36.70;18.30;;;;;;;7.70;82.09;100779.81;5013298;28;20026;-78
2021/01/15 03:27:24;;;;;;;43.63;20.15;;;;;;;7.15;82.71;100701.63;5013125;28;20026;-78
2021/01/15 03:29:51;;;;;;;37.90;17.60;;;;;;;8.38;82.19;100868.06;5013087;28;20037;-77
2021/01/15 03:32:18;;;;;;;36.80;13.50;;;;;;;8.22;82.52;100866.81;5013077;28;20029;-77
2021/01/15 03:34:45;;;;;;;30.52;12.35;;;;;;;8.43;83.34;100898.56;5013022;28;20029;-78
2021/01/15 03:37:12;;;;;;;38.90;18.35;;;;;;;7.11;83.05;100715.00;5012993;28;20030;-78
2021/01/15 03:39:38;;;;;;;34.42;14.07;;;;;;;8.21;83.85;100914.78;4995589;28;20092;-78
2021/01/15 03:42:05;;;;;;;47.67;13.88;;;;;;;7.85;84.76;100905.41;5012793;28;20093;-76
2021/01/15 03:44:33;;;;;;;36.22;11.48;;;;;;;7.98;85.54;100963.16;5012989;28;20053;-78
2021/01/15 03:47:00;;;;;;;30.48;11.38;;;;;;;7.23;86.25;100960.19;5012869;28;20092;-75
2021/01/15 03:49:26;;;;;;;32.72;12.00;;;;;;;6.95;87.35;100903.59;5011608;28;20462;-77
2021/01/15 03:51:53;;;;;;;47.40;13.02;;;;;;;7.26;87.67;100958.91;5011040;28;20136;-77
2021/01/15 03:54:20;;;;;;;42.22;14.38;;;;;;;7.32;87.35;100932.38;5012574;28;20060;-77
2021/01/15 03:56:49;;;;;;;30.13;11.60;;;;;;;7.08;87.29;100874.31;5012553;28;20501;-77
2021/01/15 03:59:17;;;;;;;41.60;13.35;;;;;;;7.46;86.24;100917.41;5012295;28;20418;-77
2021/01/15 04:01:45;;;;;;;40.78;11.57;;;;;;;7.39;86.33;100876.13;5012431;28;20475;-77
2021/01/15 04:04:12;;;;;;;47.38;15.32;;;;;;;7.10;86.72;100825.34;5012429;28;20028;-77
2021/01/15 04:06:39;;;;;;;45.95;12.88;;;;;;;7.58;86.57;100912.00;5012364;28;20088;-79
2021/01/15 04:09:06;;;;;;;55.40;15.48;;;;;;;6.50;85.84;100728.47;5012295;28;20029;-77
2021/01/15 04:11:32;;;;;;;46.63;14.52;;;;;;;6.68;84.77;100724.94;5012196;28;20030;-76
2021/01/15 04:13:59;;;;;;;43.35;14.23;;;;;;;7.63;83.84;100814.88;5012702;28;20116;-79
2021/01/15 04:16:26;;;;;;;44.15;17.13;;;;;;;7.63;83.85;100788.19;5012369;28;20117;-79
2021/01/15 04:18:53;;;;;;;44.15;14.50;;;;;;;8.26;83.44;100881.78;5011989;28;20870;-78
2021/01/15 04:21:20;;;;;;;56.33;18.77;;;;;;;8.18;83.28;100893.16;5011413;28;20044;-76
2021/01/15 04:23:46;;;;;;;59.67;20.40;;;;;;;6.90;83.02;100661.19;5012135;28;20026;-79
2021/01/15 04:26:19;;;;;;;50.20;18.52;;;;;;;7.51;83.76;100768.78;5012087;28;20490;-77
2021/01/15 04:28:49;;;;;;;53.80;17.23;;;;;;;7.99;84.61;100868.34;5011960;28;20030;-77
2021/01/15 04:31:22;;;;;;;59.83;19.93;;;;;;;8.11;84.40;100856.53;5011832;28;20021;-78
2021/01/15 04:33:49;;;;;;;55.00;17.83;;;;;;;7.94;83.80;100822.16;5011840;28;20108;-77
2021/01/15 04:36:15;;;;;;;44.67;17.80;;;;;;;8.23;83.44;100840.91;5012008;28;20026;-78
2021/01/15 04:38:43;;;;;;;48.25;19.35;;;;;;;7.64;84.30;100780.75;5011777;28;20029;-77
2021/01/15 04:41:10;;;;;;;54.58;19.20;;;;;;;7.92;84.53;100806.94;5011547;28;20084;-78
2021/01/15 04:43:40;;;;;;;52.72;18.88;;;;;;;6.90;83.54;100625.44;5011765;28;20084;-77
2021/01/15 04:46:07;;;;;;;50.38;20.42;;;;;;;7.65;84.92;100782.41;5011642;28;20124;-78
2021/01/15 04:48:35;;;;;;;52.35;19.75;;;;;;;7.98;84.91;100833.56;5011758;28;20539;-79
2021/01/15 04:51:03;;;;;;;50.78;18.02;;;;;;;7.97;84.82;100831.91;5011706;28;20030;-79
2021/01/15 04:53:35;;;;;;;47.15;20.08;;;;;;;7.38;84.57;100766.22;5011580;28;20037;-78
2021/01/15 04:56:03;;;;;;;49.30;19.85;;;;;;;7.72;84.77;100812.69;5011618;28;20029;-77
2021/01/15 04:58:34;;;;;;;55.08;20.70;;;;;;;7.83;84.75;100835.88;5011435;28;20080;-77
2021/01/15 05:01:02;;;;;;;69.65;20.90;;;;;;;7.59;86.33;100852.22;4993483;28;20415;-77
2021/01/15 05:03:29;;;;;;;57.40;20.13;;;;;;;7.48;87.02;100862.94;5011285;28;20394;-77
2021/01/15 05:06:07;;;;;;;59.95;19.23;;;;;;;7.14;87.24;100832.13;5011193;28;20097;-78
2021/01/15 05:08:39;;;;;;;63.78;18.55;;;;;;;6.89;87.67;100813.66;5011505;28;20032;-78
2021/01/15 05:11:10;;;;;;;58.92;19.92;;;;;;;6.97;89.34;100879.44;4993423;28;20028;-76
2021/01/15 05:13:37;;;;;;;78.50;19.92;;;;;;;6.40;89.49;100825.22;5011228;28;20030;-77
2021/01/15 05:16:04;;;;;;;54.83;18.67;;;;;;;6.80;90.40;100905.81;5011535;28;20079;-77
2021/01/15 05:18:38;;;;;;;62.50;20.77;;;;;;;6.82;89.70;100907.28;5011390;28;20030;-77
2021/01/15 05:21:05;;;;;;;69.82;24.13;;;;;;;5.75;90.42;100826.94;5010912;28;20053;-78
2021/01/15 05:23:32;;;;;;;63.65;23.23;;;;;;;5.41;90.87;100852.81;5011166;28;20026;-82
2021/01/15 05:25:59;;;;;;;66.05;22.83;;;;;;;5.75;91.67;100914.88;5011154;28;20374;-76
2021/01/15 05:28:26;;;;;;;62.15;23.75;;;;;;;5.65;92.06;100921.84;5011052;28;20022;-78
2021/01/15 05:30:58;;;;;;;70.78;21.88;;;;;;;4.42;92.04;100708.91;5010984;28;20108;-77
2021/01/15 05:33:25;;;;;;;67.15;25.25;;;;;;;5.35;91.80;100895.66;5010193;28;20049;-78
2021/01/15 05:35:53;;;;;;;70.05;27.17;;;;;;;5.39;92.37;100927.16;5010858;28;20452;-77
2021/01/15 05:38:21;;;;;;;76.55;27.77;;;;;;;5.41;92.42;100944.25;5010652;28;20501;-78
2021/01/15 05:40:55;;;;;;;68.90;26.60;;;;;;;3.83;92.41;100684.78;5010553;28;20426;-79
2021/01/15 05:43:24;;;;;;;91.10;31.92;;;;;;;5.20;92.68;100931.56;5010657;28;20033;-79
2021/01/15 05:46:09;;;;;;;76.85;33.28;;;;;;;5.23;91.90;100917.41;5011106;28;20053;-77
2021/01/15 05:48:37;;;;;;;87.57;39.15;;;;;;;4.93;91.07;100893.09;5010775;28;20032;-77
2021/01/15 05:51:04;;;;;;;103.90;41.80;;;;;;;4.90;89.79;100888.06;4993057;28;20053;-79
2021/01/15 05:53:42;;;;;;;103.85;47.95;;;;;;;5.03;89.30;100950.31;5010599;28;20393;-78
2021/01/15 05:56:09;;;;;;;115.28;57.42;;;;;;;4.94;88.25;100952.44;5010740;28;20052;-78
2021/01/15 05:58:36;;;;;;;121.72;64.28;;;;;;;4.62;87.86;100924.69;5010674;28;20026;-80
2021/01/15 06:01:03;;;;;;;124.10;64.75;;;;;;;4.04;87.51;100847.31;5010421;28;20037;-78
2021/01/15 06:03:30;;;;;;;129.70;70.15;;;;;;;4.20;87.86;100906.41;5010477;28;20073;-80
2021/01/15 06:05:59;;;;;;;132.82;67.25;;;;;;;4.22;87.42;100933.63;5010533;28;20034;-79
2021/01/15 06:08:43;;;;;;;151.23;76.38;;;;;;;3.68;87.08;100849.25;5010521;28;20399;-79
2021/01/15 06:11:22;;;;;;;143.32;79.47;;;;;;;4.72;86.61;101004.72;5010453;28;20033;-77
2021/01/15 06:13:49;;;;;;;146.30;77.50;;;;;;;3.21;86.28;100758.63;5010378;28;20041;-79
2021/01/15 06:16:19;;;;;;;144.43;80.90;;;;;;;4.19;85.85;100890.16;5010889;28;20037;-77
2021/01/15 06:19:03;;;;;;;150.63;79.90;;;;;;;5.05;84.27;101000.38;5010457;28;20026;-77
2021/01/15 06:21:36;;;;;;;149.43;83.93;;;;;;;4.51;84.20;100951.66;5010385;28;20026;-76
2021/01/15 06:24:09;;;;;;;149.27;82.18;;;;;;;4.89;84.68;101009.84;4992580;28;20487;-78
2021/01/15 06:26:40;;;;;;;162.93;82.93;;;;;;;4.77;83.97;100985.72;5010492;28;20022;-76
2021/01/15 06:29:20;;;;;;;152.45;83.55;;;;;;;4.97;83.13;101008.78;5010534;28;20386;-76
2021/01/15 06:31:51;;;;;;;137.52;81.78;;;;;;;4.64;84.62;101026.84;5010459;28;20044;-76
2021/01/15 06:34:20;;;;;;;158.90;89.97;;;;;;;4.62;84.62;101034.38;5010367;28;20034;-76
2021/01/15 06:36:52;;;;;;;166.55;88.10;;;;;;;3.36;84.88;100853.44;5010494;28;20167;-78
2021/01/15 06:39:20;;;;;;;155.20;84.38;;;;;;;4.74;84.42;101046.50;5010378;28;20038;-76
2021/01/15 06:41:58;;;;;;;158.82;90.35;;;;;;;4.52;85.18;101057.56;5010245;28;20040;-77
2021/01/15 06:44:26;;;;;;;162.50;87.40;;;;;;;4.14;84.16;100953.81;5010385;28;20057;-76
2021/01/15 06:46:55;;;;;;;161.68;89.53;;;;;;;4.79;83.86;101027.53;5013935;28;20186;-77
2021/01/15 06:49:31;;;;;;;157.35;87.65;;;;;;;4.43;83.79;100987.50;5013638;28;20026;-77
2021/01/15 06:51:59;;;;;;;165.05;93.05;;;;;;;4.46;85.64;101041.91;5013956;28;20018;-76
2021/01/15 06:54:34;;;;;;;175.98;96.05;;;;;;;4.26;85.32;101014.38;5013789;28;20049;-78
2021/01/15 06:57:12;;;;;;;159.43;93.55;;;;;;;4.03;86.21;101000.97;5013688;28;20030;-77
2021/01/15 06:59:41;;;;;;;171.02;89.53;;;;;;;4.59;84.61;101084.19;5013568;28;20045;-77
2021/01/15 07:02:29;;;;;;;152.57;88.72;;;;;;;3.73;84.85;100935.44;5013668;28;20054;-76
2021/01/15 07:05:01;;;;;;;171.98;91.80;;;;;;;4.32;84.66;101037.38;5013576;28;20044;-76
2021/01/15 07:07:32;;;;;;;169.45;90.10;;;;;;;4.23;84.48;101025.75;5013524;28;20035;-78
2021/01/15 07:10:04;;;;;;;174.18;91.60;;;;;;;4.35;85.39;101086.34;5013138;28;20387;-76
2021/01/15 07:12:41;;;;;;;177.90;91.55;;;;;;;3.68;85.69;100985.31;5013362;28;20022;-76
2021/01/15 07:15:15;;;;;;;158.50;90.22;;;;;;;4.18;85.45;101067.47;5013826;28;20390;-77
2021/01/15 07:17:48;;;;;;;172.82;89.18;;;;;;;4.30;84.96;101055.94;5013309;28;20029;-78
2021/01/15 07:20:19;;;;;;;163.77;89.30;;;;;;;3.90;85.38;101019.00;4995312;28;20088;-77
2021/01/15 07:22:54;;;;;;;178.45;92.80;;;;;;;3.72;84.95;100992.09;5013129;28;20030;-78
2021/01/15 07:25:22;;;;;;;160.48;86.20;;;;;;;4.56;84.76;101112.03;5013231;28;20126;-78
2021/01/15 07:27:49;;;;;;;180.40;91.95;;;;;;;4.14;86.93;101103.66;5013219;28;20060;-78
2021/01/15 07:30:29;;;;;;;173.18;84.30;;;;;;;4.14;87.51;101101.78;5013132;28;20108;-78
2021/01/15 07:32:58;;;;;;;161.07;86.50;;;;;;;4.11;87.40;101105.78;5012974;28;20148;-75
2021/01/15 07:35:29;;;;;;;142.70;76.47;;;;;;;4.40;85.88;101103.03;5012969;28;20037;-77
2021/01/15 07:38:16;;;;;;;138.07;72.20;;;;;;;3.30;86.83;101046.69;5012942;28;20029;-79
2021/01/15 07:40:44;;;;;;;127.68;69.72;;;;;;;3.39;86.67;101053.72;5012580;28;20034;-78
2021/01/15 07:43:34;;;;;;;132.77;65.88;;;;;;;3.28;86.30;101085.19;5012669;28;20029;-78
2021/01/15 07:46:06;;;;;;;118.78;59.33;;;;;;;3.74;85.33;101158.97;5013061;28;20062;-76
2021/01/15 07:48:35;;;;;;;144.10;60.33;;;;;;;3.74;85.10;101172.66;5012843;28;20491;-76
2021/01/15 07:51:22;;;;;;;102.68;49.17;;;;;;;3.19;84.99;101145.69;5012754;28;20036;-78
2021/01/15 07:53:50;;;;;;;112.22;55.58;;;;;;;3.27;85.20;101219.50;4994446;28;20038;-79
2021/01/15 07:56:26;;;;;;;116.57;54.88;;;;;;;2.98;84.90;101215.72;5011904;28;20383;-77
2021/01/15 07:58:53;;;;;;;114.50;52.00;;;;;;;3.23;83.38;101256.47;5012410;28;20585;-79
2021/01/15 08:01:21;;;;;;;113.45;52.92;;;;;;;3.14;83.16;101231.09;5012450;28;20030;-78
2021/01/15 08:03:52;;;;;;;120.65;51.83;;;;;;;2.13;80.94;101092.91;5012521;28;20029;-78
2021/01/15 08:06:24;;;;;;;115.20;48.90;;;;;;;2.60;79.72;101198.31;5012242;28;20052;-79
2021/01/15 08:09:10;;;;;;;83.57;42.30;;;;;;;2.62;78.60;101221.91;5004773;28;20042;-80
2021/01/15 08:11:38;;;;;;;106.68;42.17;;;;;;;2.99;77.41;101233.81;4993178;28;20080;-78
2021/01/15 08:14:16;;;;;;;90.50;40.95;;;;;;;2.64;76.24;101241.69;5012327;28;20784;-80
2021/01/15 08:16:45;;;;;;;86.68;38.08;;;;;;;1.78;76.61;101110.59;5012536;28;20121;-79
2021/01/15 08:19:15;;;;;;;111.45;44.65;;;;;;;1.68;76.92;101062.72;5012067;28;20022;-80
2021/01/15 08:21:43;;;;;;;87.68;38.63;;;;;;;2.39;76.03;101222.78;5012208;28;20049;-79
2021/01/15 08:24:11;;;;;;;90.30;39.08;;;;;;;2.43;76.71;101273.28;5012210;28;20044;-80
2021/01/15 08:26:47;;;;;;;86.22;40.13;;;;;;;1.53;77.00;101126.28;5012063;28;20080;-79
2021/01/15 08:29:15;;;;;;;91.05;41.17;;;;;;;2.47;75.97;101252.78;5011987;28;20030;-78
2021/01/15 08:31:43;;;;;;;87.82;36.70;;;;;;;2.70;75.32;101273.75;5011999;28;20080;-77
2021/01/15 08:34:13;;;;;;;81.30;36.00;;;;;;;2.74;75.02;101275.09;5011701;28;20416;-78
2021/01/15 08:36:43;;;;;;;92.40;42.60;;;;;;;2.11;74.84;101182.34;5011901;28;20021;-78
2021/01/15 08:39:11;;;;;;;99.75;38.70;;;;;;;2.60;74.79;101291.28;5011664;28;20018;-79
2021/01/15 08:41:42;;;;;;;79.82;38.92;;;;;;;2.70;74.88;101301.09;5011327;28;20037;-77
2021/01/15 08:44:14;;;;;;;79.75;36.08;;;;;;;2.12;74.97;101250.47;5011123;28;20403;-77
2021/01/15 08:46:41;;;;;;;84.28;37.85;;;;;;;1.76;73.76;101201.91;5012872;28;20034;-76
2021/01/15 08:49:09;;;;;;;85.22;38.50;;;;;;;1.85;75.15;101243.66;5030741;28;20498;-80
2021/01/15 08:51:41;;;;;;;81.55;36.95;;;;;;;2.12;74.28;101250.47;5031243;28;20033;-80
2021/01/15 08:54:10;;;;;;;86.57;38.28;;;;;;;2.50;74.02;101285.19;5030082;28;20032;-79
2021/01/15 08:56:48;;;;;;;89.97;37.35;;;;;;;1.97;73.90;101253.13;5024546;28;20024;-78
2021/01/15 08:59:29;;;;;;;86.05;36.05;;;;;;;1.98;73.54;101219.34;5010954;28;20101;-77
2021/01/15 09:02:01;;;;;;;89.88;35.58;;;;;;;1.41;72.70;101144.97;5015158;28;20036;-81
2021/01/15 09:04:30;;;;;;;76.07;36.88;;;;;;;1.70;73.95;101202.59;5020154;28;20057;-79
2021/01/15 09:06:59;;;;;;;85.30;34.35;;;;;;;2.03;73.67;101262.50;5007034;28;20037;-79
2021/01/15 09:09:27;;;;;;;82.10;35.65;;;;;;;0.78;73.44;101057.69;5029868;28;20027;-86
2021/01/15 09:11:55;;;;;;;73.03;33.10;;;;;;;1.66;73.58;101163.91;5014471;28;20537;-79
2021/01/15 09:14:25;;;;;;;70.45;34.50;;;;;;;2.55;72.83;101277.31;5025797;28;20053;-79
2021/01/15 09:16:53;;;;;;;77.75;34.50;;;;;;;2.28;73.77;101281.44;5022579;28;20034;-77
2021/01/15 09:19:20;;;;;;;76.20;36.00;;;;;;;2.23;74.32;101278.41;4998754;28;20041;-80
2021/01/15 09:21:52;;;;;;;78.93;34.05;;;;;;;1.87;73.98;101247.06;5027163;28;20037;-79
2021/01/15 09:24:21;;;;;;;77.10;34.45;;;;;;;2.04;74.94;101297.81;5026287;28;20084;-79
2021/01/15 09:26:55;;;;;;;74.97;35.00;;;;;;;-0.01;75.64;101011.13;5027859;28;20025;-80
2021/01/15 09:29:22;;;;;;;77.53;33.45;;;;;;;1.96;74.74;101299.75;5009197;28;20124;-80
2021/01/15 09:31:49;;;;;;;79.10;33.78;;;;;;;1.42;74.92;101225.78;5029045;28;20037;-79
2021/01/15 09:34:16;;;;;;;77.10;33.35;;;;;;;1.71;74.71;101250.72;5031310;28;20090;-79
2021/01/15 09:36:45;;;;;;;71.35;35.05;;;;;;;1.84;74.56;101313.78;5028970;28;20033;-83
2021/01/15 09:39:14;;;;;;;74.70;34.05;;;;;;;1.83;74.83;101330.38;5025762;28;20454;-79
2021/01/15 09:41:55;;;;;;;65.65;30.35;;;;;;;1.32;73.13;101253.28;5022597;28;20093;-83
2021/01/15 09:44:24;;;;;;;81.05;33.60;;;;;;;1.29;73.89;101304.63;5023534;28;20042;-81
2021/01/15 09:46:59;;;;;;;74.13;35.78;;;;;;;1.43;73.91;101372.13;5023113;28;20022;-81
2021/01/15 09:49:27;;;;;;;72.22;33.70;;;;;;;1.46;72.21;101366.31;5010682;28;20029;-81
2021/01/15 09:51:54;;;;;;;68.78;29.83;;;;;;;0.44;71.62;101160.50;5012752;28;20029;-85
2021/01/15 09:54:21;;;;;;;67.35;32.70;;;;;;;0.07;72.02;101127.31;5023971;28;20009;-80
2021/01/15 09:56:48;;;;;;;81.13;34.03;;;;;;;0.42;71.85;101191.66;5028556;28;20482;-84
2021/01/15 09:59:17;;;;;;;65.43;32.08;;;;;;;1.54;71.75;101370.91;5027052;28;20040;-81
2021/01/15 10:01:48;;;;;;;77.75;33.67;;;;;;;1.25;70.36;101281.44;5011352;28;20163;-82
2021/01/15 10:04:16;;;;;;;67.82;33.65;;;;;;;0.77;70.11;101197.72;5022113;28;20021;-79
2021/01/15 10:06:44;;;;;;;65.00;30.88;;;;;;;1.61;69.93;101339.16;5000421;28;20021;-80
2021/01/15 10:09:13;;;;;;;69.07;30.73;;;;;;;1.57;69.70;101350.59;5023442;28;20021;-81
2021/01/15 10:11:46;;;;;;;61.05;26.15;;;;;;;-0.01;68.85;101076.47;5026848;28;20430;-85
2021/01/15 10:14:14;;;;;;;81.30;30.83;;;;;;;1.25;68.42;101322.38;5010086;28;20038;-80
2021/01/15 10:16:43;;;;;;;69.78;31.77;;;;;;;0.81;68.38;101280.84;5011794;28;21542;-86
2021/01/15 10:19:10;;;;;;;66.18;27.20;;;;;;;1.29;68.31;101337.34;4993699;28;20172;-84
2021/01/15 10:21:39;;;;;;;64.68;30.25;;;;;;;0.12;67.67;101156.78;5004589;28;20036;-83
2021/01/15 10:24:10;;;;;;;56.65;28.17;;;;;;;0.86;66.50;101303.00;5005878;28;20512;-82
2021/01/15 10:26:39;;;;;;;56.58;25.95;;;;;;;0.86;67.01;101343.03;5014385;28;20554;-82
2021/01/15 10:29:07;;;;;;;69.05;28.65;;;;;;;1.42;66.07;101391.41;5023876;28;20041;-83
2021/01/15 10:31:45;;;;;;;61.85;27.65;;;;;;;1.14;65.83;101345.41;5026021;28;20022;-81
2021/01/15 10:34:12;;;;;;;52.15;26.00;;;;;;;1.31;65.93;101388.00;5029484;28;20025;-81
2021/01/15 10:36:43;;;;;;;58.33;26.52;;;;;;;0.78;64.81;101278.50;5026599;28;20061;-81
2021/01/15 10:39:14;;;;;;;53.40;25.92;;;;;;;1.33;65.55;101413.25;5027058;28;20022;-82
2021/01/15 10:41:44;;;;;;;61.22;27.27;;;;;;;1.37;65.90;101400.13;5024045;28;20514;-82
2021/01/15 10:44:16;;;;;;;61.28;26.80;;;;;;;1.31;66.05;101403.53;5027647;28;20045;-80
2021/01/15 10:46:45;;;;;;;55.47;25.08;;;;;;;0.81;66.68;101357.19;5023754;28;20034;-82
2021/01/15 10:49:14;;;;;;;69.75;24.45;;;;;;;-0.13;66.06;101192.16;5027187;28;20021;-79
2021/01/15 10:51:52;;;;;;;61.42;29.08;;;;;;;1.19;67.97;101436.59;5030435;28;20426;-81
2021/01/15 10:54:19;;;;;;;56.53;26.63;;;;;;;0.49;67.96;101298.94;5028014;28;20025;-83
2021/01/15 10:56:47;;;;;;;83.20;28.65;;;;;;;0.98;68.18;101382.59;5032221;28;20029;-83
2021/01/15 10:59:15;;;;;;;56.95;26.20;;;;;;;0.29;68.92;101285.63;5028172;28;21591;-80
2021/01/15 11:01:54;;;;;;;60.20;27.20;;;;;;;0.87;69.46;101389.22;5032421;28;20034;-81
2021/01/15 11:04:35;;;;;;;61.15;29.23;;;;;;;1.47;68.57;101438.13;5015369;28;20033;-79
2021/01/15 11:07:05;;;;;;;55.15;27.98;;;;;;;1.41;68.83;101426.03;5025853;28;20081;-79
2021/01/15 11:09:32;;;;;;;64.97;30.73;;;;;;;0.65;69.71;101347.16;5031027;28;20033;-80
2021/01/15 11:11:59;;;;;;;67.70;28.65;;;;;;;0.56;71.14;101349.00;5022950;28;20087;-78
2021/01/15 11:14:26;;;;;;;61.95;25.33;;;;;;;1.30;71.21;101453.66;5024218;28;20543;-80
2021/01/15 11:16:55;;;;;;;63.70;25.95;;;;;;;0.56;71.81;101346.28;5031899;28;20072;-80
2021/01/15 11:19:22;;;;;;;70.53;28.20;;;;;;;0.78;72.90;101384.81;5031744;28;20052;-80
2021/01/15 11:21:50;;;;;;;63.00;30.55;;;;;;;0.75;73.69;101426.88;5026140;28;20033;-79
2021/01/15 11:24:17;;;;;;;75.88;31.38;;;;;;;0.50;74.68;101398.72;5032250;28;20038;-80
2021/01/15 11:26:44;;;;;;;77.20;30.60;;;;;;;-0.34;75.95;101283.28;5023775;28;20110;-80
2021/01/15 11:29:13;;;;;;;59.88;30.60;;;;;;;0.03;76.52;101354.69;5027831;28;20040;-80
2021/01/15 11:31:41;;;;;;;71.68;32.85;;;;;;;-0.25;77.03;101335.88;5018258;28;20109;-79
2021/01/15 11:34:08;;;;;;;68.47;31.83;;;;;;;0.34;77.21;101430.34;5031487;28;20496;-81
2021/01/15 11:36:35;;;;;;;75.53;34.00;;;;;;;-0.76;76.09;101246.91;5031631;28;20025;-82